createdAt,value
2018-01-03T00:01:31.802Z,1.65
2018-01-03T00:03:58.061Z,1.73
2018-01-03T00:06:24.561Z,1.40
2018-01-03T00:08:50.773Z,1.50
2018-01-03T00:11:17.054Z,1.43
2018-01-03T00:13:43.261Z,1.52
2018-01-03T00:16:09.782Z,1.50
2018-01-03T00:18:36.070Z,1.90
2018-01-03T00:21:02.279Z,1.67
2018-01-03T00:23:28.494Z,1.83
2018-01-03T00:25:55.058Z,2.00
2018-01-03T00:28:21.305Z,1.55
2018-01-03T00:30:48.413Z,2.20
2018-01-03T00:33:14.742Z,1.40
2018-01-03T00:35:40.952Z,1.67
2018-01-03T00:38:07.115Z,1.40
2018-01-03T00:40:33.388Z,1.37
2018-01-03T00:42:59.597Z,1.50
2018-01-03T00:45:25.786Z,1.75
2018-01-03T00:47:52.268Z,1.60
2018-01-03T00:50:18.467Z,2.17
2018-01-03T00:52:44.931Z,2.00
2018-01-03T00:55:11.162Z,1.80
2018-01-03T00:57:37.356Z,1.67
2018-01-03T01:00:03.936Z,1.30
2018-01-03T01:02:30.164Z,1.60
2018-01-03T01:04:56.385Z,1.85
2018-01-03T01:07:22.928Z,1.70
2018-01-03T01:09:49.189Z,1.75
2018-01-03T01:12:15.365Z,1.40
2018-01-03T01:14:41.815Z,1.50
2018-01-03T01:17:08.447Z,1.50
2018-01-03T01:19:34.671Z,1.77
2018-01-03T01:22:00.906Z,1.67
2018-01-03T01:24:27.185Z,1.35
2018-01-03T01:26:53.365Z,1.50
2018-01-03T01:29:19.532Z,1.57
2018-01-03T01:31:45.767Z,1.40
2018-01-03T01:34:12.100Z,1.80
2018-01-03T01:36:38.301Z,1.50
2018-01-03T01:39:04.620Z,1.63
2018-01-03T01:41:30.843Z,1.43
2018-01-03T01:43:57.040Z,1.63
2018-01-03T01:46:23.326Z,1.67
2018-01-03T01:49:01.610Z,1.23
2018-01-03T01:51:27.920Z,1.52
2018-01-03T01:53:54.140Z,1.50
2018-01-03T01:56:20.690Z,1.47
2018-01-03T01:58:46.991Z,1.25
2018-01-03T02:01:13.568Z,1.42
2018-01-03T02:03:39.831Z,1.17
2018-01-03T02:06:06.097Z,1.50
2018-01-03T02:08:32.552Z,1.33
2018-01-03T02:10:59.086Z,1.60
2018-01-03T02:13:25.618Z,1.52
2018-01-03T02:15:51.841Z,1.13
2018-01-03T02:18:18.275Z,1.40
2018-01-03T02:20:44.548Z,1.27
2018-01-03T02:23:11.050Z,1.33
2018-01-03T02:25:37.300Z,1.10
2018-01-03T02:28:03.546Z,1.45
2018-01-03T02:30:29.724Z,1.87
2018-01-03T02:32:55.959Z,1.40
2018-01-03T02:35:22.377Z,1.17
2018-01-03T02:37:48.633Z,1.23
2018-01-03T02:40:14.855Z,1.45
2018-01-03T02:42:42.036Z,1.40
2018-01-03T02:45:08.537Z,1.40
2018-01-03T02:47:34.746Z,1.50
2018-01-03T02:50:00.982Z,1.60
2018-01-03T02:52:27.202Z,1.50
2018-01-03T02:54:53.426Z,1.45
2018-01-03T02:57:19.716Z,1.30
2018-01-03T02:59:45.975Z,1.30
2018-01-03T03:02:12.177Z,1.48
2018-01-03T03:04:38.461Z,1.40
2018-01-03T03:07:04.649Z,1.50
2018-01-03T03:09:30.893Z,1.35
2018-01-03T03:11:57.120Z,1.40
2018-01-03T03:14:23.385Z,1.00
2018-01-03T03:16:49.634Z,1.55
2018-01-03T03:19:15.918Z,1.30
2018-01-03T03:21:42.136Z,1.57
2018-01-03T03:24:08.359Z,1.33
2018-01-03T03:26:34.592Z,1.25
2018-01-03T03:29:01.047Z,1.20
2018-01-03T03:31:27.281Z,1.23
2018-01-03T03:33:53.596Z,1.30
2018-01-03T03:36:19.765Z,1.37
2018-01-03T03:38:46.021Z,1.30
2018-01-03T03:41:12.258Z,1.40
2018-01-03T03:43:38.416Z,1.10
2018-01-03T03:46:04.866Z,1.08
2018-01-03T03:48:31.362Z,1.33
2018-01-03T03:50:57.628Z,1.37
2018-01-03T03:53:23.838Z,1.23
2018-01-03T03:55:50.125Z,1.20
2018-01-03T03:58:16.347Z,1.30
2018-01-03T04:00:42.595Z,1.45
2018-01-03T04:03:08.886Z,1.30
2018-01-03T04:05:35.096Z,1.58
2018-01-03T04:08:01.348Z,1.10
2018-01-03T04:10:27.650Z,1.40
2018-01-03T04:12:53.912Z,1.13
2018-01-03T04:15:20.179Z,0.97
2018-01-03T04:17:46.459Z,1.40
2018-01-03T04:20:12.677Z,1.40
2018-01-03T04:22:38.888Z,1.30
2018-01-03T04:25:05.169Z,1.08
2018-01-03T04:27:31.399Z,1.20
2018-01-03T04:29:57.629Z,1.10
2018-01-03T04:32:23.913Z,1.33
2018-01-03T04:34:50.142Z,1.27
2018-01-03T04:37:16.603Z,1.33
2018-01-03T04:39:42.834Z,1.10
2018-01-03T04:42:09.109Z,1.30
2018-01-03T04:44:35.275Z,1.33
2018-01-03T04:47:01.725Z,1.15
2018-01-03T04:49:27.941Z,1.20
2018-01-03T04:51:54.157Z,1.27
2018-01-03T04:54:20.455Z,1.00
2018-01-03T04:56:46.641Z,1.00
2018-01-03T04:59:12.853Z,1.30
2018-01-03T05:01:39.084Z,1.10
2018-01-03T05:04:05.333Z,1.10
2018-01-03T05:06:31.561Z,1.12
2018-01-03T05:08:57.831Z,1.12
2018-01-03T05:11:24.477Z,1.10
2018-01-03T05:13:50.662Z,1.00
2018-01-03T05:16:16.934Z,0.90
2018-01-03T05:18:43.166Z,1.05
2018-01-03T05:21:09.427Z,1.00
2018-01-03T05:23:35.722Z,1.08
2018-01-03T05:26:01.963Z,1.30
2018-01-03T05:28:28.186Z,1.20
2018-01-03T05:30:54.467Z,1.20
2018-01-03T05:33:20.658Z,1.00
2018-01-03T05:35:46.866Z,1.05
2018-01-03T05:38:13.176Z,1.40
2018-01-03T05:40:39.348Z,1.10
2018-01-03T05:43:05.529Z,1.03
2018-01-03T05:45:31.827Z,1.10
2018-01-03T05:47:58.050Z,1.00
2018-01-03T05:50:24.274Z,1.00
2018-01-03T05:52:50.540Z,0.97
2018-01-03T05:55:16.756Z,1.00
2018-01-03T05:57:43.025Z,1.07
2018-01-03T06:00:09.357Z,1.27
2018-01-03T06:02:35.556Z,1.20
2018-01-03T06:05:01.807Z,1.10
2018-01-03T06:07:28.450Z,1.15
2018-01-03T06:09:54.667Z,1.35
2018-01-03T06:12:21.425Z,0.90
2018-01-03T06:14:47.731Z,1.10
2018-01-03T06:17:13.906Z,1.10
2018-01-03T06:19:40.117Z,1.10
2018-01-03T06:22:06.386Z,1.00
2018-01-03T06:24:32.667Z,1.02
2018-01-03T06:26:58.841Z,1.15
2018-01-03T06:29:25.429Z,1.00
2018-01-03T06:31:51.686Z,1.10
2018-01-03T06:34:17.923Z,0.90
2018-01-03T06:36:44.239Z,0.98
2018-01-03T06:39:10.475Z,1.10
2018-01-03T06:41:36.673Z,0.90
2018-01-03T06:44:03.289Z,0.90
2018-01-03T06:46:29.489Z,1.05
2018-01-03T06:48:55.846Z,1.00
2018-01-03T06:51:22.127Z,0.98
2018-01-03T06:53:48.345Z,1.10
2018-01-03T06:56:14.552Z,1.00
2018-01-03T06:58:41.074Z,0.80
2018-01-03T07:01:07.501Z,1.00
2018-01-03T07:03:33.708Z,0.80
2018-01-03T07:06:00.275Z,1.20
2018-01-03T07:08:26.771Z,1.20
2018-01-03T07:10:53.033Z,1.00
2018-01-03T07:13:19.350Z,1.10
2018-01-03T07:15:45.532Z,0.98
2018-01-03T07:18:12.041Z,1.20
2018-01-03T07:20:38.323Z,0.90
2018-01-03T07:23:04.537Z,1.10
2018-01-03T07:25:30.732Z,1.00
2018-01-03T07:27:57.052Z,0.88
2018-01-03T07:30:23.517Z,1.30
2018-01-03T07:32:49.746Z,1.10
2018-01-03T07:35:16.050Z,0.93
2018-01-03T07:37:42.312Z,1.10
2018-01-03T07:40:08.492Z,1.23
2018-01-03T07:42:34.750Z,1.23
2018-01-03T07:45:01.028Z,1.02
2018-01-03T07:47:27.328Z,1.35
2018-01-03T07:49:53.639Z,1.00
2018-01-03T07:52:20.132Z,1.40
2018-01-03T07:54:46.395Z,1.40
2018-01-03T07:57:12.714Z,1.30
2018-01-03T07:59:38.939Z,1.30
2018-01-03T08:02:05.204Z,1.20
2018-01-03T08:04:31.542Z,1.30
2018-01-03T08:06:58.017Z,1.23
2018-01-03T08:09:24.222Z,1.50
2018-01-03T08:11:50.506Z,1.23
2018-01-03T08:14:16.759Z,1.10
2018-01-03T08:16:42.998Z,1.48
2018-01-03T08:19:09.575Z,1.23
2018-01-03T08:21:35.821Z,1.20
2018-01-03T08:24:02.043Z,1.55
2018-01-03T08:26:28.305Z,1.37
2018-01-03T08:28:54.794Z,1.50
2018-01-03T08:31:21.015Z,1.40
2018-01-03T08:33:47.307Z,1.40
2018-01-03T08:36:13.526Z,1.20
2018-01-03T08:38:39.899Z,1.40
2018-01-03T08:41:06.286Z,1.50
2018-01-03T08:43:32.552Z,1.77
2018-01-03T08:45:58.858Z,1.53
2018-01-03T08:48:25.126Z,1.50
2018-01-03T08:50:51.364Z,1.40
2018-01-03T08:53:17.799Z,1.65
2018-01-03T08:55:44.066Z,1.73
2018-01-03T08:58:10.555Z,1.97
2018-01-03T09:00:36.735Z,1.58
2018-01-03T09:03:03.001Z,1.80
2018-01-03T09:05:29.217Z,2.28
2018-01-03T09:07:55.673Z,1.90
2018-01-03T09:10:21.916Z,1.90
2018-01-03T09:12:48.386Z,2.53
2018-01-03T09:15:14.747Z,1.75
2018-01-03T09:17:41.037Z,2.10
2018-01-03T09:20:07.498Z,1.60
2018-01-03T09:22:33.771Z,2.17
2018-01-03T09:25:00.063Z,2.13
2018-01-03T09:27:26.257Z,2.00
2018-01-03T09:29:52.484Z,2.10
2018-01-03T09:32:18.744Z,1.70
2018-01-03T09:34:44.925Z,1.90
2018-01-03T09:37:11.117Z,1.70
2018-01-03T09:39:37.398Z,2.17
2018-01-03T09:42:03.654Z,2.07
2018-01-03T09:44:29.872Z,1.70
2018-01-03T09:46:56.170Z,1.95
2018-01-03T09:49:22.357Z,2.53
2018-01-03T09:51:48.620Z,1.90
2018-01-03T09:54:14.945Z,2.20
2018-01-03T09:56:41.201Z,2.72
2018-01-03T09:59:07.465Z,1.80
2018-01-03T10:01:33.688Z,2.30
2018-01-03T10:03:59.953Z,2.53
2018-01-03T10:06:26.198Z,2.40
2018-01-03T10:08:52.442Z,2.55
2018-01-03T10:11:18.716Z,2.05
2018-01-03T10:13:44.960Z,3.00
2018-01-03T10:16:11.260Z,2.20
2018-01-03T10:18:37.487Z,1.60
2018-01-03T10:21:03.717Z,2.30
2018-01-03T10:23:29.987Z,3.40
2018-01-03T10:25:56.164Z,1.93
2018-01-03T10:28:22.747Z,2.65
2018-01-03T10:30:49.054Z,2.50
2018-01-03T10:33:15.484Z,1.98
2018-01-03T10:35:41.708Z,2.22
2018-01-03T10:38:07.995Z,1.93
2018-01-03T10:40:34.182Z,2.37
2018-01-03T10:43:00.418Z,2.40
2018-01-03T10:45:26.700Z,2.40
2018-01-03T10:47:52.968Z,1.87
2018-01-03T10:50:19.176Z,2.27
2018-01-03T10:52:45.380Z,2.60
2018-01-03T10:55:11.607Z,2.40
2018-01-03T10:57:37.854Z,2.63
2018-01-03T11:00:04.183Z,2.30
2018-01-03T11:02:30.418Z,2.40
2018-01-03T11:04:56.643Z,2.53
2018-01-03T11:07:22.903Z,2.03
2018-01-03T11:09:49.167Z,2.37
2018-01-03T11:12:15.347Z,2.77
2018-01-03T11:14:41.989Z,2.60
2018-01-03T11:17:08.235Z,2.83
2018-01-03T11:19:34.488Z,2.60
2018-01-03T11:22:00.823Z,3.67
2018-01-03T11:24:27.030Z,2.43
2018-01-03T11:26:53.240Z,2.63
2018-01-03T11:29:19.478Z,2.27
2018-01-03T11:31:45.720Z,2.27
2018-01-03T11:34:11.918Z,2.50
2018-01-03T11:36:38.200Z,2.63
2018-01-03T11:39:04.550Z,2.53
2018-01-03T11:41:30.796Z,1.97
2018-01-03T11:43:57.099Z,3.20
2018-01-03T11:46:24.595Z,2.30
2018-01-03T11:51:41.102Z,2.30
2018-01-03T11:54:07.326Z,2.50
2018-01-03T11:56:33.514Z,2.30
2018-01-03T11:59:00.096Z,2.93
2018-01-03T12:01:26.350Z,2.53
2018-01-03T12:03:52.865Z,2.40
2018-01-03T12:06:19.162Z,2.63
2018-01-03T12:08:45.407Z,2.53
2018-01-03T12:11:11.666Z,2.40
2018-01-03T12:13:38.004Z,2.50
2018-01-03T12:16:04.198Z,2.30
2018-01-03T12:18:30.391Z,2.10
2018-01-03T12:20:56.972Z,2.47
2018-01-03T12:23:23.252Z,2.57
2018-01-03T12:25:49.471Z,2.62
2018-01-03T12:28:16.081Z,2.25
2018-01-03T12:30:42.298Z,2.30
2018-01-03T12:33:08.509Z,3.10
2018-01-03T12:35:34.768Z,2.25
2018-01-03T12:38:01.011Z,2.30
2018-01-03T12:40:27.278Z,2.45
2018-01-03T12:42:53.604Z,2.28
2018-01-03T12:45:20.181Z,1.92
2018-01-03T12:47:46.421Z,2.03
2018-01-03T12:50:13.044Z,1.77
2018-01-03T12:52:39.287Z,2.30
2018-01-03T12:55:05.509Z,2.28
2018-01-03T12:57:31.748Z,2.15
2018-01-03T12:59:57.981Z,2.23
2018-01-03T13:02:24.216Z,2.67
2018-01-03T13:04:50.558Z,2.20
2018-01-03T13:07:16.772Z,2.97
2018-01-03T13:09:42.992Z,1.75
2018-01-03T13:12:09.344Z,1.75
2018-01-03T13:14:35.636Z,2.33
2018-01-03T13:17:01.837Z,1.98
2018-01-03T13:19:28.118Z,2.37
2018-01-03T13:21:54.394Z,2.25
2018-01-03T13:24:20.616Z,2.03
2018-01-03T13:26:46.891Z,2.07
2018-01-03T13:29:13.409Z,1.90
2018-01-03T13:31:39.743Z,1.98
2018-01-03T13:34:06.032Z,1.30
2018-01-03T13:36:32.281Z,1.70
2018-01-03T13:38:59.044Z,1.87
2018-01-03T13:41:25.354Z,1.90
2018-01-03T13:43:51.572Z,1.70
2018-01-03T13:46:17.809Z,2.10
2018-01-03T13:48:44.053Z,1.67
2018-01-03T13:51:10.244Z,1.65
2018-01-03T13:53:36.489Z,1.50
2018-01-03T13:56:02.756Z,1.77
2018-01-03T13:58:28.989Z,1.50
2018-01-03T14:00:55.172Z,2.00
2018-01-03T14:03:21.729Z,1.85
2018-01-03T14:05:47.957Z,1.50
2018-01-03T14:08:14.148Z,1.55
2018-01-03T14:10:40.663Z,1.70
2018-01-03T14:13:06.903Z,2.60
2018-01-03T14:15:33.173Z,1.80
2018-01-03T14:17:59.449Z,1.67
2018-01-03T14:20:25.738Z,1.83
2018-01-03T14:22:51.966Z,1.62
2018-01-03T14:25:18.607Z,1.75
2018-01-03T14:27:44.916Z,2.25
2018-01-03T14:30:11.165Z,2.33
2018-01-03T14:32:37.463Z,2.03
2018-01-03T14:35:03.669Z,2.30
2018-01-03T14:37:29.893Z,3.03
2018-01-03T14:39:56.181Z,2.15
2018-01-03T14:42:22.405Z,2.35
2018-01-03T14:44:48.714Z,2.08
2018-01-03T14:47:14.969Z,2.22
2018-01-03T14:49:41.192Z,1.70
2018-01-03T14:52:07.410Z,1.90
2018-01-03T14:54:33.953Z,1.73
2018-01-03T14:57:00.176Z,1.98
2018-01-03T14:59:26.390Z,2.28
2018-01-03T15:01:52.679Z,2.22
2018-01-03T15:04:24.907Z,1.90
2018-01-03T15:06:51.101Z,1.87
2018-01-03T15:09:17.374Z,2.00
2018-01-03T15:11:43.595Z,1.90
2018-01-03T15:14:09.807Z,2.20
2018-01-03T15:16:36.129Z,2.37
2018-01-03T15:19:02.348Z,2.72
2018-01-03T15:21:28.568Z,2.20
2018-01-03T15:23:54.851Z,2.00
2018-01-03T15:26:21.064Z,2.08
2018-01-03T15:28:47.290Z,2.50
2018-01-03T15:31:13.554Z,2.00
2018-01-03T15:33:39.803Z,2.30
2018-01-03T15:36:06.033Z,2.08
2018-01-03T15:38:32.268Z,3.20
2018-01-03T15:40:58.505Z,1.77
2018-01-03T15:43:24.966Z,2.55
2018-01-03T15:45:51.306Z,2.50
2018-01-03T15:48:17.528Z,2.00
2018-01-03T15:50:43.989Z,2.10
2018-01-03T15:53:10.247Z,2.60
2018-01-03T15:55:36.449Z,1.85
2018-01-03T15:58:02.653Z,2.55
2018-01-03T16:00:29.148Z,2.12
2018-01-03T16:02:55.333Z,1.98
2018-01-03T16:05:21.517Z,1.90
2018-01-03T16:07:47.764Z,2.40
2018-01-03T16:10:13.980Z,1.85
2018-01-03T16:12:40.210Z,2.00
2018-01-03T16:15:06.484Z,2.87
2018-01-03T16:17:32.982Z,2.00
2018-01-03T16:19:59.201Z,2.60
2018-01-03T16:22:25.844Z,2.42
2018-01-03T16:24:52.281Z,1.77
2018-01-03T16:27:18.508Z,2.45
2018-01-03T16:29:44.793Z,1.80
2018-01-03T16:32:11.002Z,2.42
2018-01-03T16:34:37.225Z,1.90
2018-01-03T16:37:03.502Z,2.10
2018-01-03T16:39:29.721Z,2.35
2018-01-03T16:41:55.955Z,2.00
2018-01-03T16:44:22.236Z,2.42
2018-01-03T16:46:48.537Z,2.75
2018-01-03T16:49:14.803Z,2.92
2018-01-03T16:51:47.090Z,2.55
2018-01-03T16:54:13.315Z,2.50
2018-01-03T16:56:39.750Z,2.62
2018-01-03T16:59:05.999Z,2.50
2018-01-03T17:01:32.196Z,2.03
2018-01-03T17:03:58.395Z,2.35
2018-01-03T17:06:24.668Z,2.83
2018-01-03T17:08:50.889Z,2.10
2018-01-03T17:11:17.089Z,2.50
2018-01-03T17:13:43.373Z,2.42
2018-01-03T17:16:09.556Z,2.00
2018-01-03T17:18:35.852Z,2.20
2018-01-03T17:21:02.095Z,2.62
2018-01-03T17:23:28.325Z,3.28
2018-01-03T17:25:54.809Z,2.42
2018-01-03T17:28:21.226Z,2.37
2018-01-03T17:30:47.420Z,2.47
2018-01-03T17:33:13.743Z,2.55
2018-01-03T17:35:39.961Z,2.30
2018-01-03T17:38:06.168Z,2.10
2018-01-03T17:40:32.447Z,2.47
2018-01-03T17:42:58.651Z,2.97
2018-01-03T17:45:24.844Z,2.80
2018-01-03T17:47:51.121Z,2.87
2018-01-03T17:50:17.646Z,2.53
2018-01-03T17:52:43.837Z,2.80
2018-01-03T17:55:10.090Z,2.40
2018-01-03T17:57:36.380Z,2.60
2018-01-03T18:00:02.665Z,2.70
2018-01-03T18:02:28.897Z,2.90
2018-01-03T18:04:55.191Z,2.55
2018-01-03T18:07:21.401Z,3.28
2018-01-03T18:09:47.628Z,2.60
2018-01-03T18:12:13.897Z,2.95
2018-01-03T18:14:40.135Z,2.12
2018-01-03T18:17:06.324Z,2.10
2018-01-03T18:19:32.803Z,2.30
2018-01-03T18:21:58.987Z,2.42
2018-01-03T18:24:25.266Z,2.22
2018-01-03T18:26:51.517Z,2.40
2018-01-03T18:29:17.745Z,2.85
2018-01-03T18:31:44.184Z,2.53
2018-01-03T18:34:10.428Z,2.40
2018-01-03T18:36:36.657Z,3.10
2018-01-03T18:39:02.980Z,3.12
2018-01-03T18:41:29.216Z,2.92
2018-01-03T18:43:55.777Z,2.22
2018-01-03T18:46:22.212Z,2.28
2018-01-03T18:48:48.426Z,2.80
2018-01-03T18:51:14.706Z,3.10
2018-01-03T18:53:40.918Z,2.47
2018-01-03T18:56:07.440Z,3.40
2018-01-03T18:58:33.695Z,2.97
2018-01-03T19:01:00.203Z,2.53
2018-01-03T19:03:26.421Z,2.35
2018-01-03T19:05:52.684Z,2.35
2018-01-03T19:08:18.944Z,2.83
2018-01-03T19:10:45.177Z,2.80
2018-01-03T19:13:11.681Z,2.50
2018-01-03T19:15:37.880Z,2.42
2018-01-03T19:18:04.069Z,2.25
2018-01-03T19:20:30.353Z,3.03
2018-01-03T19:22:56.772Z,2.80
2018-01-03T19:25:23.049Z,3.20
2018-01-03T19:27:49.325Z,2.53
2018-01-03T19:30:15.546Z,3.25
2018-01-03T19:32:41.790Z,3.17
2018-01-03T19:35:08.046Z,3.35
2018-01-03T19:37:34.250Z,2.45
2018-01-03T19:40:00.439Z,3.75
2018-01-03T19:42:26.689Z,3.25
2018-01-03T19:44:52.881Z,3.03
2018-01-03T19:47:19.336Z,3.37
2018-01-03T19:49:45.820Z,2.65
2018-01-03T19:52:12.034Z,2.95
2018-01-03T19:54:38.225Z,3.47
2018-01-03T19:57:04.775Z,3.65
2018-01-03T19:59:30.993Z,3.20
2018-01-03T20:01:57.197Z,4.05
2018-01-03T20:04:23.468Z,3.60
2018-01-03T20:06:49.713Z,3.95
2018-01-03T20:09:15.927Z,3.72
2018-01-03T20:11:42.188Z,4.15
2018-01-03T20:14:08.681Z,3.20
2018-01-03T20:16:35.312Z,4.03
2018-01-03T20:19:01.626Z,3.53
2018-01-03T20:21:27.833Z,4.25
2018-01-03T20:23:54.064Z,3.83
2018-01-03T20:26:20.356Z,3.87
2018-01-03T20:28:46.589Z,3.50
2018-01-03T20:31:13.034Z,5.55
2018-01-03T20:33:39.266Z,4.55
2018-01-03T20:36:05.872Z,4.43
2018-01-03T20:38:32.214Z,4.75
2018-01-03T20:40:58.677Z,4.40
2018-01-03T20:43:24.979Z,4.00
2018-01-03T20:45:51.508Z,3.62
2018-01-03T20:48:17.794Z,4.45
2018-01-03T20:50:44.297Z,3.95
2018-01-03T20:53:10.582Z,4.15
2018-01-03T20:55:36.925Z,4.47
2018-01-03T20:58:03.256Z,5.40
2018-01-03T21:00:29.530Z,4.95
2018-01-03T21:02:55.843Z,3.92
2018-01-03T21:05:22.118Z,4.75
2018-01-03T21:07:48.422Z,4.85
2018-01-03T21:10:14.755Z,4.00
2018-01-03T21:12:41.058Z,3.90
2018-01-03T21:15:07.658Z,5.85
2018-01-03T21:17:33.972Z,4.72
2018-01-03T21:20:00.301Z,5.25
2018-01-03T21:22:26.598Z,4.10
2018-01-03T21:24:52.915Z,4.05
2018-01-03T21:27:19.230Z,4.50
2018-01-03T21:29:45.510Z,5.15
2018-01-03T21:32:11.829Z,4.30
2018-01-03T21:34:38.117Z,5.00
2018-01-03T21:37:04.378Z,3.58
2018-01-03T21:39:31.073Z,4.50
2018-01-03T21:41:57.601Z,4.10
2018-01-03T21:44:23.882Z,4.65
2018-01-03T21:46:50.210Z,3.85
2018-01-03T21:51:48.410Z,5.05
2018-01-03T21:54:14.747Z,4.20
2018-01-03T21:56:41.022Z,4.47
2018-01-03T21:59:07.282Z,4.05
2018-01-03T22:01:33.579Z,4.30
2018-01-03T22:03:59.792Z,4.62
2018-01-03T22:06:26.028Z,4.45
2018-01-03T22:08:52.305Z,3.95
2018-01-03T22:11:18.765Z,3.60
2018-01-03T22:13:44.984Z,4.10
2018-01-03T22:16:11.468Z,4.55
2018-01-03T22:18:37.652Z,4.62
2018-01-03T22:21:03.840Z,4.43
2018-01-03T22:23:30.226Z,5.05
2018-01-03T22:25:56.458Z,4.35
2018-01-03T22:28:22.636Z,3.30
2018-01-03T22:30:48.916Z,4.30
2018-01-03T22:33:15.142Z,4.40
2018-01-03T22:35:41.367Z,5.40
2018-01-03T22:38:07.624Z,4.10
2018-01-03T22:40:34.069Z,3.53
2018-01-03T22:43:00.496Z,4.18
2018-01-03T22:45:26.756Z,4.10
2018-01-03T22:47:52.930Z,4.70
2018-01-03T22:50:19.108Z,3.67
2018-01-03T22:52:45.380Z,4.07
2018-01-03T22:55:11.688Z,3.33
2018-01-03T22:57:38.260Z,4.10
2018-01-03T23:00:04.569Z,4.53
2018-01-03T23:02:30.778Z,3.75
2018-01-03T23:04:56.974Z,4.00
2018-01-03T23:07:23.219Z,4.22
2018-01-03T23:09:49.425Z,4.57
2018-01-03T23:12:15.640Z,3.53
2018-01-03T23:14:41.896Z,4.68
2018-01-03T23:17:08.133Z,3.65
2018-01-03T23:19:34.354Z,3.65
2018-01-03T23:22:00.605Z,3.62
2018-01-03T23:24:27.136Z,4.07
2018-01-03T23:26:53.607Z,3.05
2018-01-03T23:29:19.957Z,3.28
2018-01-03T23:31:46.186Z,4.12
2018-01-03T23:34:12.394Z,3.30
2018-01-03T23:36:38.647Z,3.30
2018-01-03T23:39:04.834Z,3.87
2018-01-03T23:41:31.030Z,3.37
2018-01-03T23:43:57.270Z,3.95
2018-01-03T23:46:23.703Z,3.17
2018-01-03T23:48:49.882Z,2.92
2018-01-03T23:51:16.121Z,2.72
2018-01-03T23:53:42.629Z,3.72
2018-01-03T23:56:08.854Z,3.30
2018-01-03T23:58:35.085Z,3.85
